sensor_id;sensor_type;location;lat;lon;timestamp;temperature;humidity
69932;DHT22;57243;52.064;5.116;2022-09-09T00:03:41;24.30;53.40
69932;DHT22;57243;52.064;5.116;2022-09-09T00:06:23;24.30;53.40
69932;DHT22;57243;52.064;5.116;2022-09-09T00:09:12;24.30;53.40
69932;DHT22;57243;52.064;5.116;2022-09-09T00:11:46;24.30;53.40
69932;DHT22;57243;52.064;5.116;2022-09-09T00:14:45;24.30;53.50
69932;DHT22;57243;52.064;5.116;2022-09-09T00:17:32;24.30;53.40
69932;DHT22;57243;52.064;5.116;2022-09-09T00:20:21;24.30;53.40
69932;DHT22;57243;52.064;5.116;2022-09-09T00:23:28;24.30;53.50
69932;DHT22;57243;52.064;5.116;2022-09-09T00:28:48;24.30;53.40
69932;DHT22;57243;52.064;5.116;2022-09-09T00:31:20;24.30;53.60
69932;DHT22;57243;52.064;5.116;2022-09-09T00:33:49;24.30;53.60
69932;DHT22;57243;52.064;5.116;2022-09-09T00:36:19;24.30;53.50
69932;DHT22;57243;52.064;5.116;2022-09-09T00:38:51;24.30;53.60
69932;DHT22;57243;52.064;5.116;2022-09-09T00:47:18;24.30;53.60
69932;DHT22;57243;52.064;5.116;2022-09-09T00:50:00;24.30;53.60
69932;DHT22;57243;52.064;5.116;2022-09-09T00:57:38;24.30;53.20
69932;DHT22;57243;52.064;5.116;2022-09-09T01:05:43;24.30;53.20
69932;DHT22;57243;52.064;5.116;2022-09-09T01:08:50;24.30;53.30
69932;DHT22;57243;52.064;5.116;2022-09-09T01:14:10;24.30;53.30
69932;DHT22;57243;52.064;5.116;2022-09-09T01:16:37;24.30;53.40
69932;DHT22;57243;52.064;5.116;2022-09-09T01:19:04;24.30;53.30
69932;DHT22;57243;52.064;5.116;2022-09-09T01:21:46;24.30;53.30
69932;DHT22;57243;52.064;5.116;2022-09-09T01:24:40;24.30;53.40
69932;DHT22;57243;52.064;5.116;2022-09-09T01:27:08;24.30;53.30
69932;DHT22;57243;52.064;5.116;2022-09-09T01:29:35;24.30;53.40
69932;DHT22;57243;52.064;5.116;2022-09-09T01:32:35;24.30;53.40
69932;DHT22;57243;52.064;5.116;2022-09-09T01:34:48;24.30;53.30
69932;DHT22;57243;52.064;5.116;2022-09-09T01:37:15;24.30;53.30
69932;DHT22;57243;52.064;5.116;2022-09-09T01:39:42;24.30;53.50
69932;DHT22;57243;52.064;5.116;2022-09-09T01:42:11;24.30;53.30
69932;DHT22;57243;52.064;5.116;2022-09-09T01:44:38;24.30;53.30
69932;DHT22;57243;52.064;5.116;2022-09-09T01:47:04;24.30;53.30
69932;DHT22;57243;52.064;5.116;2022-09-09T01:49:30;24.30;53.30
69932;DHT22;57243;52.064;5.116;2022-09-09T01:51:58;24.30;53.40
69932;DHT22;57243;52.064;5.116;2022-09-09T01:54:26;24.30;53.40
69932;DHT22;57243;52.064;5.116;2022-09-09T02:08:06;24.30;53.20
69932;DHT22;57243;52.064;5.116;2022-09-09T02:10:39;24.30;53.40
69932;DHT22;57243;52.064;5.116;2022-09-09T02:13:11;24.30;53.30
69932;DHT22;57243;52.064;5.116;2022-09-09T02:18:24;24.30;53.40
69932;DHT22;57243;52.064;5.116;2022-09-09T02:20:53;24.30;53.50
69932;DHT22;57243;52.064;5.116;2022-09-09T02:23:19;24.30;53.40
69932;DHT22;57243;52.064;5.116;2022-09-09T02:25:46;24.30;53.40
69932;DHT22;57243;52.064;5.116;2022-09-09T02:28:15;24.30;53.40
69932;DHT22;57243;52.064;5.116;2022-09-09T02:30:42;24.30;53.50
69932;DHT22;57243;52.064;5.116;2022-09-09T02:33:11;24.30;53.40
69932;DHT22;57243;52.064;5.116;2022-09-09T02:35:40;24.30;53.40
69932;DHT22;57243;52.064;5.116;2022-09-09T02:38:09;24.30;53.40
69932;DHT22;57243;52.064;5.116;2022-09-09T02:40:35;24.30;53.40
69932;DHT22;57243;52.064;5.116;2022-09-09T02:43:01;24.30;53.30
69932;DHT22;57243;52.064;5.116;2022-09-09T02:45:36;24.30;53.40
69932;DHT22;57243;52.064;5.116;2022-09-09T02:48:14;24.30;53.30
69932;DHT22;57243;52.064;5.116;2022-09-09T02:51:09;24.30;53.20
69932;DHT22;57243;52.064;5.116;2022-09-09T02:53:50;24.30;53.00
69932;DHT22;57243;52.064;5.116;2022-09-09T02:56:21;24.30;53.00
69932;DHT22;57243;52.064;5.116;2022-09-09T02:58:49;24.30;53.10
69932;DHT22;57243;52.064;5.116;2022-09-09T03:01:17;24.30;53.40
69932;DHT22;57243;52.064;5.116;2022-09-09T03:03:42;24.30;53.60
69932;DHT22;57243;52.064;5.116;2022-09-09T03:06:09;24.30;53.60
69932;DHT22;57243;52.064;5.116;2022-09-09T03:08:37;24.30;53.30
69932;DHT22;57243;52.064;5.116;2022-09-09T03:11:02;24.30;53.20
69932;DHT22;57243;52.064;5.116;2022-09-09T03:13:28;24.30;53.40
69932;DHT22;57243;52.064;5.116;2022-09-09T03:15:54;24.30;53.40
69932;DHT22;57243;52.064;5.116;2022-09-09T03:18:20;24.30;53.60
69932;DHT22;57243;52.064;5.116;2022-09-09T03:20:46;24.30;53.50
69932;DHT22;57243;52.064;5.116;2022-09-09T03:23:13;24.30;53.60
69932;DHT22;57243;52.064;5.116;2022-09-09T03:25:39;24.30;53.60
69932;DHT22;57243;52.064;5.116;2022-09-09T03:28:05;24.30;53.70
69932;DHT22;57243;52.064;5.116;2022-09-09T03:30:30;24.30;53.70
69932;DHT22;57243;52.064;5.116;2022-09-09T03:32:56;24.30;53.90
69932;DHT22;57243;52.064;5.116;2022-09-09T03:35:22;24.30;53.70
69932;DHT22;57243;52.064;5.116;2022-09-09T03:37:47;24.30;53.60
69932;DHT22;57243;52.064;5.116;2022-09-09T03:40:13;24.30;53.70
69932;DHT22;57243;52.064;5.116;2022-09-09T03:42:39;24.30;53.60
69932;DHT22;57243;52.064;5.116;2022-09-09T03:45:07;24.30;53.70
69932;DHT22;57243;52.064;5.116;2022-09-09T03:47:34;24.30;53.70
69932;DHT22;57243;52.064;5.116;2022-09-09T03:50:00;24.30;53.80
69932;DHT22;57243;52.064;5.116;2022-09-09T03:52:26;24.30;53.60
69932;DHT22;57243;52.064;5.116;2022-09-09T03:54:53;24.30;53.60
69932;DHT22;57243;52.064;5.116;2022-09-09T03:57:19;24.30;53.50
69932;DHT22;57243;52.064;5.116;2022-09-09T03:59:45;24.30;53.40
69932;DHT22;57243;52.064;5.116;2022-09-09T04:02:11;24.30;53.50
69932;DHT22;57243;52.064;5.116;2022-09-09T04:04:36;24.30;53.40
69932;DHT22;57243;52.064;5.116;2022-09-09T04:07:02;24.30;53.40
69932;DHT22;57243;52.064;5.116;2022-09-09T04:09:28;24.30;53.50
69932;DHT22;57243;52.064;5.116;2022-09-09T04:11:53;24.30;53.40
69932;DHT22;57243;52.064;5.116;2022-09-09T04:14:19;24.30;53.50
69932;DHT22;57243;52.064;5.116;2022-09-09T04:16:45;24.30;53.40
69932;DHT22;57243;52.064;5.116;2022-09-09T04:19:12;24.30;53.40
69932;DHT22;57243;52.064;5.116;2022-09-09T04:21:39;24.30;53.40
69932;DHT22;57243;52.064;5.116;2022-09-09T04:24:06;24.30;53.40
69932;DHT22;57243;52.064;5.116;2022-09-09T04:26:32;24.30;53.40
69932;DHT22;57243;52.064;5.116;2022-09-09T04:28:58;24.30;53.30
69932;DHT22;57243;52.064;5.116;2022-09-09T04:31:24;24.30;53.30
69932;DHT22;57243;52.064;5.116;2022-09-09T04:33:50;24.30;53.40
69932;DHT22;57243;52.064;5.116;2022-09-09T04:36:16;24.30;53.40
69932;DHT22;57243;52.064;5.116;2022-09-09T04:38:43;24.30;53.20
69932;DHT22;57243;52.064;5.116;2022-09-09T04:41:10;24.30;53.40
69932;DHT22;57243;52.064;5.116;2022-09-09T04:43:37;24.30;53.40
69932;DHT22;57243;52.064;5.116;2022-09-09T04:46:03;24.30;53.30
69932;DHT22;57243;52.064;5.116;2022-09-09T04:48:28;24.30;53.20
69932;DHT22;57243;52.064;5.116;2022-09-09T04:51:00;24.30;53.30
69932;DHT22;57243;52.064;5.116;2022-09-09T04:53:26;24.30;53.30
69932;DHT22;57243;52.064;5.116;2022-09-09T04:56:00;24.30;53.40
69932;DHT22;57243;52.064;5.116;2022-09-09T04:58:26;24.30;53.20
69932;DHT22;57243;52.064;5.116;2022-09-09T05:00:52;24.30;53.20
69932;DHT22;57243;52.064;5.116;2022-09-09T05:03:17;24.30;53.30
69932;DHT22;57243;52.064;5.116;2022-09-09T05:05:43;24.30;53.20
69932;DHT22;57243;52.064;5.116;2022-09-09T05:08:11;24.30;53.00
69932;DHT22;57243;52.064;5.116;2022-09-09T05:10:39;24.20;53.10
69932;DHT22;57243;52.064;5.116;2022-09-09T05:13:07;24.20;53.20
69932;DHT22;57243;52.064;5.116;2022-09-09T05:15:32;24.20;53.10
69932;DHT22;57243;52.064;5.116;2022-09-09T05:17:59;24.30;53.20
69932;DHT22;57243;52.064;5.116;2022-09-09T05:20:26;24.30;53.10
69932;DHT22;57243;52.064;5.116;2022-09-09T05:22:53;24.30;53.20
69932;DHT22;57243;52.064;5.116;2022-09-09T05:25:19;24.30;53.20
69932;DHT22;57243;52.064;5.116;2022-09-09T05:27:45;24.30;53.00
69932;DHT22;57243;52.064;5.116;2022-09-09T05:30:11;24.20;53.00
69932;DHT22;57243;52.064;5.116;2022-09-09T05:32:36;24.20;52.90
69932;DHT22;57243;52.064;5.116;2022-09-09T05:35:03;24.20;52.90
69932;DHT22;57243;52.064;5.116;2022-09-09T05:37:30;24.30;52.90
69932;DHT22;57243;52.064;5.116;2022-09-09T05:39:56;24.20;52.90
69932;DHT22;57243;52.064;5.116;2022-09-09T05:42:23;24.20;52.90
69932;DHT22;57243;52.064;5.116;2022-09-09T05:44:49;24.30;52.90
69932;DHT22;57243;52.064;5.116;2022-09-09T05:47:16;24.20;53.00
69932;DHT22;57243;52.064;5.116;2022-09-09T05:49:42;24.20;52.90
69932;DHT22;57243;52.064;5.116;2022-09-09T05:52:08;24.20;53.00
69932;DHT22;57243;52.064;5.116;2022-09-09T05:54:35;24.30;53.10
69932;DHT22;57243;52.064;5.116;2022-09-09T05:57:02;24.20;53.00
69932;DHT22;57243;52.064;5.116;2022-09-09T05:59:27;24.20;52.90
69932;DHT22;57243;52.064;5.116;2022-09-09T06:01:53;24.20;53.00
69932;DHT22;57243;52.064;5.116;2022-09-09T06:04:19;24.20;53.10
69932;DHT22;57243;52.064;5.116;2022-09-09T06:06:49;24.20;52.90
69932;DHT22;57243;52.064;5.116;2022-09-09T06:09:15;24.30;52.70
69932;DHT22;57243;52.064;5.116;2022-09-09T06:11:42;24.20;52.70
69932;DHT22;57243;52.064;5.116;2022-09-09T06:14:08;24.20;52.60
69932;DHT22;57243;52.064;5.116;2022-09-09T06:16:34;24.20;52.80
69932;DHT22;57243;52.064;5.116;2022-09-09T06:19:00;24.20;52.50
69932;DHT22;57243;52.064;5.116;2022-09-09T06:21:30;24.20;52.60
69932;DHT22;57243;52.064;5.116;2022-09-09T06:23:57;24.20;52.60
69932;DHT22;57243;52.064;5.116;2022-09-09T06:26:24;24.20;52.70
69932;DHT22;57243;52.064;5.116;2022-09-09T06:28:52;24.20;52.80
69932;DHT22;57243;52.064;5.116;2022-09-09T06:31:20;24.20;52.80
69932;DHT22;57243;52.064;5.116;2022-09-09T06:33:47;24.20;52.80
69932;DHT22;57243;52.064;5.116;2022-09-09T06:36:19;24.20;52.80
69932;DHT22;57243;52.064;5.116;2022-09-09T06:38:46;24.20;52.70
69932;DHT22;57243;52.064;5.116;2022-09-09T06:41:13;24.10;52.80
69932;DHT22;57243;52.064;5.116;2022-09-09T06:43:39;24.20;52.70
69932;DHT22;57243;52.064;5.116;2022-09-09T06:46:08;24.20;52.70
69932;DHT22;57243;52.064;5.116;2022-09-09T06:48:35;24.10;52.70
69932;DHT22;57243;52.064;5.116;2022-09-09T06:51:10;24.20;52.70
69932;DHT22;57243;52.064;5.116;2022-09-09T06:53:40;24.20;53.00
69932;DHT22;57243;52.064;5.116;2022-09-09T06:56:29;24.20;53.00
69932;DHT22;57243;52.064;5.116;2022-09-09T06:58:57;24.20;53.80
69932;DHT22;57243;52.064;5.116;2022-09-09T07:01:29;24.20;55.50
69932;DHT22;57243;52.064;5.116;2022-09-09T07:03:56;24.20;54.20
69932;DHT22;57243;52.064;5.116;2022-09-09T07:06:27;24.20;55.60
69932;DHT22;57243;52.064;5.116;2022-09-09T07:08:55;24.10;56.30
69932;DHT22;57243;52.064;5.116;2022-09-09T07:11:26;24.10;55.20
69932;DHT22;57243;52.064;5.116;2022-09-09T07:13:52;24.10;54.80
69932;DHT22;57243;52.064;5.116;2022-09-09T07:16:19;24.10;54.20
69932;DHT22;57243;52.064;5.116;2022-09-09T07:18:56;24.10;53.90
69932;DHT22;57243;52.064;5.116;2022-09-09T07:21:24;24.10;53.90
69932;DHT22;57243;52.064;5.116;2022-09-09T07:23:51;24.10;53.70
69932;DHT22;57243;52.064;5.116;2022-09-09T07:26:19;24.10;53.70
69932;DHT22;57243;52.064;5.116;2022-09-09T07:28:45;24.10;53.50
69932;DHT22;57243;52.064;5.116;2022-09-09T07:31:20;24.10;53.50
69932;DHT22;57243;52.064;5.116;2022-09-09T07:33:46;24.00;53.60
69932;DHT22;57243;52.064;5.116;2022-09-09T07:38:41;24.00;53.40
69932;DHT22;57243;52.064;5.116;2022-09-09T07:41:10;24.00;53.40
69932;DHT22;57243;52.064;5.116;2022-09-09T07:43:40;24.00;53.50
69932;DHT22;57243;52.064;5.116;2022-09-09T07:46:07;24.00;53.30
69932;DHT22;57243;52.064;5.116;2022-09-09T07:48:33;24.00;53.30
69932;DHT22;57243;52.064;5.116;2022-09-09T07:51:08;23.90;53.20
69932;DHT22;57243;52.064;5.116;2022-09-09T07:53:34;23.90;53.30
69932;DHT22;57243;52.064;5.116;2022-09-09T07:56:10;23.90;53.30
69932;DHT22;57243;52.064;5.116;2022-09-09T07:58:37;23.90;53.30
69932;DHT22;57243;52.064;5.116;2022-09-09T08:01:27;23.90;53.20
69932;DHT22;57243;52.064;5.116;2022-09-09T08:03:56;23.90;53.20
69932;DHT22;57243;52.064;5.116;2022-09-09T08:06:25;23.90;53.10
69932;DHT22;57243;52.064;5.116;2022-09-09T08:08:52;23.90;53.00
69932;DHT22;57243;52.064;5.116;2022-09-09T08:11:20;23.90;53.00
69932;DHT22;57243;52.064;5.116;2022-09-09T08:13:46;23.90;53.00
69932;DHT22;57243;52.064;5.116;2022-09-09T08:16:15;23.90;53.00
69932;DHT22;57243;52.064;5.116;2022-09-09T08:18:41;23.90;53.00
69932;DHT22;57243;52.064;5.116;2022-09-09T08:21:12;23.90;53.10
69932;DHT22;57243;52.064;5.116;2022-09-09T08:23:42;23.90;52.90
69932;DHT22;57243;52.064;5.116;2022-09-09T08:26:12;23.80;53.00
69932;DHT22;57243;52.064;5.116;2022-09-09T08:28:39;23.80;53.00
69932;DHT22;57243;52.064;5.116;2022-09-09T08:31:11;23.80;53.00
69932;DHT22;57243;52.064;5.116;2022-09-09T08:33:37;23.90;53.00
69932;DHT22;57243;52.064;5.116;2022-09-09T08:36:05;23.90;53.00
69932;DHT22;57243;52.064;5.116;2022-09-09T08:38:31;23.90;53.00
69932;DHT22;57243;52.064;5.116;2022-09-09T08:41:12;23.90;52.90
69932;DHT22;57243;52.064;5.116;2022-09-09T08:43:41;23.80;53.00
69932;DHT22;57243;52.064;5.116;2022-09-09T08:46:17;23.80;53.00
69932;DHT22;57243;52.064;5.116;2022-09-09T08:51:11;23.80;52.90
69932;DHT22;57243;52.064;5.116;2022-09-09T08:53:42;23.80;52.90
69932;DHT22;57243;52.064;5.116;2022-09-09T08:56:25;23.80;52.90
69932;DHT22;57243;52.064;5.116;2022-09-09T08:58:54;23.80;53.00
69932;DHT22;57243;52.064;5.116;2022-09-09T09:01:42;23.80;53.00
69932;DHT22;57243;52.064;5.116;2022-09-09T09:12:26;23.90;52.80
69932;DHT22;57243;52.064;5.116;2022-09-09T09:14:54;23.80;52.80
69932;DHT22;57243;52.064;5.116;2022-09-09T09:17:23;23.80;52.90
69932;DHT22;57243;52.064;5.116;2022-09-09T09:19:50;23.80;53.00
69932;DHT22;57243;52.064;5.116;2022-09-09T09:22:21;23.80;52.90
69932;DHT22;57243;52.064;5.116;2022-09-09T09:27:52;23.80;52.90
69932;DHT22;57243;52.064;5.116;2022-09-09T09:30:22;23.80;52.90
69932;DHT22;57243;52.064;5.116;2022-09-09T09:33:11;23.80;52.90
69932;DHT22;57243;52.064;5.116;2022-09-09T09:35:40;23.80;52.80
69932;DHT22;57243;52.064;5.116;2022-09-09T09:40:56;23.80;53.20
69932;DHT22;57243;52.064;5.116;2022-09-09T09:43:37;23.80;53.20
69932;DHT22;57243;52.064;5.116;2022-09-09T09:46:17;23.80;53.20
69932;DHT22;57243;52.064;5.116;2022-09-09T09:48:43;23.80;53.30
69932;DHT22;57243;52.064;5.116;2022-09-09T09:51:13;23.80;53.30
69932;DHT22;57243;52.064;5.116;2022-09-09T09:53:41;23.90;53.30
69932;DHT22;57243;52.064;5.116;2022-09-09T09:56:13;23.90;53.30
69932;DHT22;57243;52.064;5.116;2022-09-09T10:01:34;23.90;53.40
69932;DHT22;57243;52.064;5.116;2022-09-09T10:06:44;23.90;53.40
69932;DHT22;57243;52.064;5.116;2022-09-09T10:09:22;23.90;53.50
69932;DHT22;57243;52.064;5.116;2022-09-09T10:12:16;23.90;53.50
69932;DHT22;57243;52.064;5.116;2022-09-09T10:34:20;23.60;56.90
69932;DHT22;57243;52.064;5.116;2022-09-09T10:36:50;23.60;56.70
69932;DHT22;57243;52.064;5.116;2022-09-09T10:39:37;23.60;56.80
69932;DHT22;57243;52.064;5.116;2022-09-09T10:42:12;23.50;56.70
69932;DHT22;57243;52.064;5.116;2022-09-09T10:45:07;23.50;56.80
69932;DHT22;57243;52.064;5.116;2022-09-09T10:48:05;23.50;57.10
69932;DHT22;57243;52.064;5.116;2022-09-09T10:50:50;23.40;56.90
69932;DHT22;57243;52.064;5.116;2022-09-09T10:53:35;23.40;56.90
69932;DHT22;57243;52.064;5.116;2022-09-09T10:56:07;23.40;56.90
69932;DHT22;57243;52.064;5.116;2022-09-09T10:58:40;23.40;56.90
69932;DHT22;57243;52.064;5.116;2022-09-09T11:01:20;23.30;57.20
69932;DHT22;57243;52.064;5.116;2022-09-09T11:03:54;23.30;56.90
69932;DHT22;57243;52.064;5.116;2022-09-09T11:06:24;23.30;57.10
69932;DHT22;57243;52.064;5.116;2022-09-09T11:08:53;23.30;57.00
69932;DHT22;57243;52.064;5.116;2022-09-09T11:11:31;23.30;57.00
69932;DHT22;57243;52.064;5.116;2022-09-09T11:14:18;23.20;57.10
69932;DHT22;57243;52.064;5.116;2022-09-09T11:16:59;23.30;56.90
69932;DHT22;57243;52.064;5.116;2022-09-09T11:19:36;23.20;57.00
69932;DHT22;57243;52.064;5.116;2022-09-09T11:22:27;23.20;56.90
69932;DHT22;57243;52.064;5.116;2022-09-09T11:33:16;23.20;57.10
69932;DHT22;57243;52.064;5.116;2022-09-09T11:38:29;23.20;57.20
69932;DHT22;57243;52.064;5.116;2022-09-09T11:41:05;23.10;57.30
69932;DHT22;57243;52.064;5.116;2022-09-09T11:43:45;23.10;57.30
69932;DHT22;57243;52.064;5.116;2022-09-09T11:46:14;23.10;57.40
69932;DHT22;57243;52.064;5.116;2022-09-09T11:48:59;23.00;57.70
69932;DHT22;57243;52.064;5.116;2022-09-09T11:51:28;23.00;58.00
69932;DHT22;57243;52.064;5.116;2022-09-09T11:53:59;22.90;58.10
69932;DHT22;57243;52.064;5.116;2022-09-09T11:59:19;23.00;58.10
69932;DHT22;57243;52.064;5.116;2022-09-09T12:01:44;23.00;58.10
69932;DHT22;57243;52.064;5.116;2022-09-09T12:12:34;23.00;58.50
69932;DHT22;57243;52.064;5.116;2022-09-09T12:15:16;22.90;58.60
69932;DHT22;57243;52.064;5.116;2022-09-09T12:17:48;22.90;58.40
69932;DHT22;57243;52.064;5.116;2022-09-09T12:34:11;22.90;58.60
69932;DHT22;57243;52.064;5.116;2022-09-09T12:36:39;22.90;58.70
69932;DHT22;57243;52.064;5.116;2022-09-09T12:39:17;22.90;58.50
69932;DHT22;57243;52.064;5.116;2022-09-09T12:41:52;23.00;58.30
69932;DHT22;57243;52.064;5.116;2022-09-09T12:44:25;23.00;58.30
69932;DHT22;57243;52.064;5.116;2022-09-09T12:46:54;23.00;58.30
69932;DHT22;57243;52.064;5.116;2022-09-09T12:49:32;23.00;58.30
69932;DHT22;57243;52.064;5.116;2022-09-09T12:52:13;22.90;58.10
69932;DHT22;57243;52.064;5.116;2022-09-09T12:54:45;22.90;58.10
69932;DHT22;57243;52.064;5.116;2022-09-09T12:57:14;22.90;57.80
69932;DHT22;57243;52.064;5.116;2022-09-09T12:59:42;22.90;57.90
69932;DHT22;57243;52.064;5.116;2022-09-09T13:02:36;22.90;58.10
69932;DHT22;57243;52.064;5.116;2022-09-09T13:05:15;22.80;58.20
69932;DHT22;57243;52.064;5.116;2022-09-09T13:07:42;22.80;58.00
69932;DHT22;57243;52.064;5.116;2022-09-09T13:10:12;22.80;58.10
69932;DHT22;57243;52.064;5.116;2022-09-09T13:12:38;22.70;58.20
69932;DHT22;57243;52.064;5.116;2022-09-09T13:15:04;22.70;58.10
69932;DHT22;57243;52.064;5.116;2022-09-09T13:17:36;22.80;58.20
69932;DHT22;57243;52.064;5.116;2022-09-09T13:20:02;22.80;58.10
69932;DHT22;57243;52.064;5.116;2022-09-09T13:22:37;22.80;57.70
69932;DHT22;57243;52.064;5.116;2022-09-09T13:27:38;22.90;57.80
69932;DHT22;57243;52.064;5.116;2022-09-09T13:32:59;22.90;58.30
69932;DHT22;57243;52.064;5.116;2022-09-09T13:35:24;22.90;58.40
69932;DHT22;57243;52.064;5.116;2022-09-09T13:37:50;22.80;58.60
69932;DHT22;57243;52.064;5.116;2022-09-09T13:40:23;22.80;58.80
69932;DHT22;57243;52.064;5.116;2022-09-09T13:42:55;22.80;58.70
69932;DHT22;57243;52.064;5.116;2022-09-09T13:45:23;22.80;58.70
69932;DHT22;57243;52.064;5.116;2022-09-09T13:47:53;22.80;58.70
69932;DHT22;57243;52.064;5.116;2022-09-09T13:52:53;22.80;59.30
69932;DHT22;57243;52.064;5.116;2022-09-09T13:55:21;22.80;59.40
69932;DHT22;57243;52.064;5.116;2022-09-09T13:58:05;22.70;59.50
69932;DHT22;57243;52.064;5.116;2022-09-09T14:00:33;22.80;59.70
69932;DHT22;57243;52.064;5.116;2022-09-09T14:02:59;22.80;59.90
69932;DHT22;57243;52.064;5.116;2022-09-09T14:05:27;22.80;60.00
69932;DHT22;57243;52.064;5.116;2022-09-09T14:07:53;22.80;60.20
69932;DHT22;57243;52.064;5.116;2022-09-09T14:10:19;22.80;60.40
69932;DHT22;57243;52.064;5.116;2022-09-09T14:12:45;22.70;60.50
69932;DHT22;57243;52.064;5.116;2022-09-09T14:15:12;22.80;60.60
69932;DHT22;57243;52.064;5.116;2022-09-09T14:17:37;22.80;60.70
69932;DHT22;57243;52.064;5.116;2022-09-09T14:20:04;22.80;60.70
69932;DHT22;57243;52.064;5.116;2022-09-09T14:22:37;22.80;60.80
69932;DHT22;57243;52.064;5.116;2022-09-09T14:25:04;22.80;61.30
69932;DHT22;57243;52.064;5.116;2022-09-09T14:27:31;22.80;61.30
69932;DHT22;57243;52.064;5.116;2022-09-09T14:29:58;22.80;61.40
69932;DHT22;57243;52.064;5.116;2022-09-09T14:32:23;22.80;61.60
69932;DHT22;57243;52.064;5.116;2022-09-09T14:34:49;22.80;61.80
69932;DHT22;57243;52.064;5.116;2022-09-09T14:37:18;22.90;62.10
69932;DHT22;57243;52.064;5.116;2022-09-09T14:39:44;22.90;61.40
69932;DHT22;57243;52.064;5.116;2022-09-09T14:42:11;22.90;61.40
69932;DHT22;57243;52.064;5.116;2022-09-09T14:44:37;23.00;61.30
69932;DHT22;57243;52.064;5.116;2022-09-09T14:47:06;23.00;60.90
69932;DHT22;57243;52.064;5.116;2022-09-09T14:49:33;23.00;60.40
69932;DHT22;57243;52.064;5.116;2022-09-09T14:51:59;23.00;59.90
69932;DHT22;57243;52.064;5.116;2022-09-09T14:54:25;22.90;59.80
69932;DHT22;57243;52.064;5.116;2022-09-09T14:56:51;22.90;59.80
69932;DHT22;57243;52.064;5.116;2022-09-09T14:59:16;22.90;59.80
69932;DHT22;57243;52.064;5.116;2022-09-09T15:01:42;22.80;59.60
69932;DHT22;57243;52.064;5.116;2022-09-09T15:04:12;22.80;59.50
69932;DHT22;57243;52.064;5.116;2022-09-09T15:06:38;22.80;59.30
69932;DHT22;57243;52.064;5.116;2022-09-09T15:09:04;22.80;59.30
69932;DHT22;57243;52.064;5.116;2022-09-09T15:11:33;22.90;59.30
69932;DHT22;57243;52.064;5.116;2022-09-09T15:14:03;22.80;59.30
69932;DHT22;57243;52.064;5.116;2022-09-09T15:16:29;22.80;59.30
69932;DHT22;57243;52.064;5.116;2022-09-09T15:18:57;22.80;59.20
69932;DHT22;57243;52.064;5.116;2022-09-09T15:21:31;22.80;59.20
69932;DHT22;57243;52.064;5.116;2022-09-09T15:23:58;22.80;59.50
69932;DHT22;57243;52.064;5.116;2022-09-09T15:26:25;22.80;59.50
69932;DHT22;57243;52.064;5.116;2022-09-09T15:28:51;22.90;59.40
69932;DHT22;57243;52.064;5.116;2022-09-09T15:31:18;22.80;59.20
69932;DHT22;57243;52.064;5.116;2022-09-09T15:36:19;22.90;58.80
69932;DHT22;57243;52.064;5.116;2022-09-09T15:38:46;22.80;59.00
69932;DHT22;57243;52.064;5.116;2022-09-09T15:41:12;22.90;58.80
69932;DHT22;57243;52.064;5.116;2022-09-09T15:43:39;22.90;58.90
69932;DHT22;57243;52.064;5.116;2022-09-09T15:48:51;22.90;58.70
69932;DHT22;57243;52.064;5.116;2022-09-09T15:51:17;22.90;58.60
69932;DHT22;57243;52.064;5.116;2022-09-09T15:53:44;22.90;58.50
69932;DHT22;57243;52.064;5.116;2022-09-09T15:56:10;22.90;58.30
69932;DHT22;57243;52.064;5.116;2022-09-09T15:58:36;22.80;58.40
69932;DHT22;57243;52.064;5.116;2022-09-09T16:01:03;22.80;58.00
69932;DHT22;57243;52.064;5.116;2022-09-09T16:03:33;22.80;58.10
69932;DHT22;57243;52.064;5.116;2022-09-09T16:05:59;22.80;58.20
69932;DHT22;57243;52.064;5.116;2022-09-09T16:08:30;22.90;58.20
69932;DHT22;57243;52.064;5.116;2022-09-09T16:10:56;23.00;58.00
69932;DHT22;57243;52.064;5.116;2022-09-09T16:13:22;23.00;57.90
69932;DHT22;57243;52.064;5.116;2022-09-09T16:15:54;23.10;57.90
69932;DHT22;57243;52.064;5.116;2022-09-09T16:18:20;23.10;58.20
69932;DHT22;57243;52.064;5.116;2022-09-09T16:20:56;23.20;58.00
69932;DHT22;57243;52.064;5.116;2022-09-09T16:23:21;23.20;58.20
69932;DHT22;57243;52.064;5.116;2022-09-09T16:25:56;23.20;58.20
69932;DHT22;57243;52.064;5.116;2022-09-09T16:28:22;23.30;58.10
69932;DHT22;57243;52.064;5.116;2022-09-09T16:30:48;23.30;58.00
69932;DHT22;57243;52.064;5.116;2022-09-09T16:33:14;23.40;58.10
69932;DHT22;57243;52.064;5.116;2022-09-09T16:35:42;23.40;57.90
69932;DHT22;57243;52.064;5.116;2022-09-09T16:38:08;23.40;58.10
69932;DHT22;57243;52.064;5.116;2022-09-09T16:40:34;23.40;58.20
69932;DHT22;57243;52.064;5.116;2022-09-09T16:43:00;23.40;58.00
69932;DHT22;57243;52.064;5.116;2022-09-09T16:45:26;23.40;57.80
69932;DHT22;57243;52.064;5.116;2022-09-09T16:47:52;23.40;57.90
69932;DHT22;57243;52.064;5.116;2022-09-09T16:50:18;23.40;58.30
69932;DHT22;57243;52.064;5.116;2022-09-09T16:52:44;23.40;58.10
69932;DHT22;57243;52.064;5.116;2022-09-09T16:55:09;23.40;58.10
69932;DHT22;57243;52.064;5.116;2022-09-09T16:57:35;23.40;58.00
69932;DHT22;57243;52.064;5.116;2022-09-09T17:00:01;23.40;58.20
69932;DHT22;57243;52.064;5.116;2022-09-09T17:02:27;23.40;58.30
69932;DHT22;57243;52.064;5.116;2022-09-09T17:04:54;23.40;58.40
69932;DHT22;57243;52.064;5.116;2022-09-09T17:07:19;23.40;58.00
69932;DHT22;57243;52.064;5.116;2022-09-09T17:09:46;23.40;58.10
69932;DHT22;57243;52.064;5.116;2022-09-09T17:12:11;23.40;58.20
69932;DHT22;57243;52.064;5.116;2022-09-09T17:14:37;23.40;58.40
69932;DHT22;57243;52.064;5.116;2022-09-09T17:17:03;23.40;58.30
69932;DHT22;57243;52.064;5.116;2022-09-09T17:19:30;23.40;58.20
69932;DHT22;57243;52.064;5.116;2022-09-09T17:21:56;23.40;58.40
69932;DHT22;57243;52.064;5.116;2022-09-09T17:24:24;23.40;58.50
69932;DHT22;57243;52.064;5.116;2022-09-09T17:26:51;23.40;58.60
69932;DHT22;57243;52.064;5.116;2022-09-09T17:29:17;23.40;58.70
69932;DHT22;57243;52.064;5.116;2022-09-09T17:31:43;23.40;58.80
69932;DHT22;57243;52.064;5.116;2022-09-09T17:34:09;23.30;58.90
69932;DHT22;57243;52.064;5.116;2022-09-09T17:36:35;23.40;58.90
69932;DHT22;57243;52.064;5.116;2022-09-09T17:39:03;23.40;58.90
69932;DHT22;57243;52.064;5.116;2022-09-09T17:41:34;23.30;58.90
69932;DHT22;57243;52.064;5.116;2022-09-09T17:44:00;23.40;59.00
69932;DHT22;57243;52.064;5.116;2022-09-09T17:46:39;23.40;58.60
69932;DHT22;57243;52.064;5.116;2022-09-09T17:49:08;23.40;58.80
69932;DHT22;57243;52.064;5.116;2022-09-09T17:51:35;23.40;59.00
69932;DHT22;57243;52.064;5.116;2022-09-09T17:54:07;23.40;58.90
69932;DHT22;57243;52.064;5.116;2022-09-09T17:56:36;23.40;58.90
69932;DHT22;57243;52.064;5.116;2022-09-09T17:59:04;23.40;58.50